Time;durP1;ratioP1;P1;durP2;ratioP2;P2;SDS_P1;SDS_P2;PMS_P1;PMS_P2;Temp;Humidity;BMP_temperature;BMP_pressure;BME280_temperature;BME280_humidity;BME280_pressure;Samples;Min_cycle;Max_cycle;Signal;HPM_P1;HPM_P2
2021/10/30 00:02:15;;;;;;;106.80;64.80;;;;;;;4.48;79.63;101207.56;1723537;83;21771;-80
2021/10/30 00:04:44;;;;;;;99.25;63.55;;;;;;;4.46;79.74;101209.19;1723691;83;21062;-82
2021/10/30 00:07:10;;;;;;;99.03;62.75;;;;;;;4.43;79.69;101208.12;1723318;83;21066;-83
2021/10/30 00:09:40;;;;;;;102.30;65.35;;;;;;;4.39;79.68;101209.68;1693912;83;21129;-82
2021/10/30 00:12:10;;;;;;;99.13;60.45;;;;;;;4.34;79.74;101196.78;1723485;83;21121;-81
2021/10/30 00:14:43;;;;;;;97.47;60.35;;;;;;;4.34;79.94;101195.89;1723599;83;21765;-81
2021/10/30 00:17:10;;;;;;;100.92;63.52;;;;;;;4.31;79.97;101191.80;1723609;83;21066;-81
2021/10/30 00:19:38;;;;;;;97.10;61.37;;;;;;;4.31;79.93;101199.20;1723591;83;21624;-80
2021/10/30 00:22:05;;;;;;;99.22;62.75;;;;;;;4.28;79.95;101196.44;1723717;83;21612;-81
2021/10/30 00:24:42;;;;;;;96.42;61.85;;;;;;;4.26;79.95;101194.13;1694352;83;21793;-81
2021/10/30 00:27:13;;;;;;;92.82;59.48;;;;;;;4.22;79.92;101185.26;1723152;83;21572;-81
2021/10/30 00:29:38;;;;;;;96.12;59.60;;;;;;;4.19;79.83;101191.58;1723050;83;21090;-81
2021/10/30 00:32:06;;;;;;;94.20;60.00;;;;;;;4.16;79.67;101189.20;1723579;83;21132;-81
2021/10/30 00:34:38;;;;;;;93.60;61.75;;;;;;;4.11;79.74;101184.12;1718793;83;21093;-76
2021/10/30 00:37:04;;;;;;;102.92;62.55;;;;;;;4.06;79.83;101179.55;1722923;83;22235;-81
2021/10/30 00:39:31;;;;;;;101.25;63.13;;;;;;;4.04;80.00;101177.68;1718543;83;21750;-82
2021/10/30 00:42:01;;;;;;;102.82;65.42;;;;;;;4.03;80.07;101171.55;1715744;83;21085;-81
2021/10/30 00:44:29;;;;;;;105.75;65.22;;;;;;;4.02;80.08;101178.00;1715061;83;21094;-81
2021/10/30 00:46:55;;;;;;;104.70;65.30;;;;;;;4.01;80.14;101174.47;1714880;83;21520;-80
2021/10/30 00:49:28;;;;;;;105.37;66.55;;;;;;;3.98;80.06;101173.39;1715868;83;21083;-81
2021/10/30 00:51:56;;;;;;;114.25;65.65;;;;;;;3.96;80.12;101173.70;1715669;83;21771;-81
2021/10/30 00:54:25;;;;;;;105.60;65.30;;;;;;;3.93;80.07;101167.04;1710662;83;21723;-81
2021/10/30 00:56:54;;;;;;;107.65;64.77;;;;;;;3.89;80.08;101168.56;1715719;83;21081;-81
2021/10/30 00:59:25;;;;;;;115.88;67.45;;;;;;;3.85;80.10;101167.89;1715772;83;21059;-80
2021/10/30 01:01:51;;;;;;;116.35;67.90;;;;;;;3.79;80.12;101161.00;1715043;83;21138;-80
2021/10/30 01:04:18;;;;;;;114.75;66.77;;;;;;;3.76;80.13;101155.22;1715666;83;21755;-80
2021/10/30 01:06:47;;;;;;;110.45;67.05;;;;;;;3.69;80.11;101155.25;1715714;83;21027;-80
2021/10/30 01:09:17;;;;;;;111.42;65.10;;;;;;;3.66;80.15;101159.37;1715678;83;21643;-81
2021/10/30 01:11:46;;;;;;;104.55;63.92;;;;;;;3.63;80.17;101159.22;1714835;83;21078;-81
2021/10/30 01:14:13;;;;;;;98.58;63.15;;;;;;;3.60;80.24;101157.72;1715587;83;21126;-80
2021/10/30 01:16:40;;;;;;;107.10;64.00;;;;;;;3.57;80.33;101157.56;1715431;83;21734;-80
2021/10/30 01:19:06;;;;;;;103.17;63.70;;;;;;;3.56;80.46;101158.34;1715549;83;21073;-80
2021/10/30 01:21:37;;;;;;;101.15;61.88;;;;;;;3.55;80.50;101154.86;1715603;83;21735;-81
2021/10/30 01:24:10;;;;;;;103.35;60.03;;;;;;;3.55;80.48;101153.94;1715320;83;21098;-81
2021/10/30 01:26:37;;;;;;;97.53;60.85;;;;;;;3.52;80.44;101160.28;1714931;83;21012;-81
2021/10/30 01:29:06;;;;;;;103.27;61.00;;;;;;;3.50;80.53;101161.48;1715757;83;22559;-81
2021/10/30 01:31:33;;;;;;;98.30;61.10;;;;;;;3.47;80.63;101155.70;1715710;83;21070;-80
2021/10/30 01:34:05;;;;;;;98.82;59.58;;;;;;;3.49;80.60;101153.16;1715750;83;21019;-80
2021/10/30 01:36:35;;;;;;;91.20;56.53;;;;;;;3.48;80.62;101147.48;1715504;83;21639;-80
2021/10/30 01:39:08;;;;;;;80.70;52.53;;;;;;;3.46;80.63;101145.20;1683324;83;21050;-81
2021/10/30 01:41:35;;;;;;;81.97;53.10;;;;;;;3.45;80.73;101152.48;1708562;83;22656;-81
2021/10/30 01:44:04;;;;;;;90.47;54.00;;;;;;;3.45;80.89;101148.20;1708945;83;21082;-81
2021/10/30 01:46:35;;;;;;;87.75;54.40;;;;;;;3.45;81.05;101153.41;1708804;83;21095;-80
2021/10/30 01:49:02;;;;;;;83.60;53.25;;;;;;;3.47;81.09;101159.61;1708954;83;21066;-80
2021/10/30 01:51:29;;;;;;;85.83;54.58;;;;;;;3.47;81.11;101147.89;1709200;83;21054;-80
2021/10/30 01:53:58;;;;;;;81.70;53.87;;;;;;;3.48;81.16;101143.58;1709128;83;21770;-79
2021/10/30 01:56:24;;;;;;;82.00;52.43;;;;;;;3.49;81.15;101141.45;1709000;83;21119;-80
2021/10/30 01:58:51;;;;;;;81.95;52.85;;;;;;;3.49;81.19;101141.08;1709114;83;21289;-80
2021/10/30 02:01:18;;;;;;;77.58;50.15;;;;;;;3.49;81.11;101138.85;1709228;83;21110;-80
2021/10/30 02:03:49;;;;;;;90.15;53.08;;;;;;;3.49;81.29;101143.67;1708802;83;21569;-80
2021/10/30 02:06:15;;;;;;;79.60;50.40;;;;;;;3.49;81.23;101148.88;1709164;83;21224;-80
2021/10/30 02:08:45;;;;;;;79.42;50.40;;;;;;;3.50;81.30;101149.77;1708892;83;21098;-80
2021/10/30 02:11:12;;;;;;;79.67;50.30;;;;;;;3.50;81.32;101148.47;1709035;83;21129;-80
2021/10/30 02:13:39;;;;;;;72.15;48.08;;;;;;;3.50;81.30;101148.05;1708945;83;21075;-80
2021/10/30 02:16:10;;;;;;;75.52;48.87;;;;;;;3.50;81.25;101147.17;1708458;83;21075;-80
2021/10/30 02:18:37;;;;;;;79.70;49.05;;;;;;;3.48;81.18;101143.16;1709020;83;22603;-81
2021/10/30 02:21:03;;;;;;;69.53;47.17;;;;;;;3.46;81.05;101143.89;1708908;83;21071;-80
2021/10/30 02:23:32;;;;;;;73.47;48.17;;;;;;;3.42;80.97;101143.22;1705525;83;21078;-81
2021/10/30 02:25:59;;;;;;;78.50;48.55;;;;;;;3.39;81.07;101145.63;1708837;83;22338;-81
2021/10/30 02:28:26;;;;;;;76.72;48.00;;;;;;;3.38;81.06;101143.44;1708835;83;21082;-80
2021/10/30 02:30:54;;;;;;;78.47;44.77;;;;;;;3.38;81.13;101145.12;1681796;83;21410;-80
2021/10/30 02:33:21;;;;;;;71.35;44.93;;;;;;;3.38;81.23;101141.22;1709159;83;21125;-80
2021/10/30 02:35:50;;;;;;;69.10;45.08;;;;;;;3.38;81.32;101149.94;1705519;83;21082;-81
2021/10/30 02:38:17;;;;;;;72.05;45.33;;;;;;;3.38;81.49;101151.24;1708953;83;21655;-82
2021/10/30 02:40:43;;;;;;;72.10;44.63;;;;;;;3.39;81.53;101144.33;1714019;83;21575;-81
2021/10/30 02:43:12;;;;;;;69.37;43.75;;;;;;;3.39;81.60;101146.92;1714927;83;21062;-81
2021/10/30 02:45:43;;;;;;;68.92;42.27;;;;;;;3.41;81.75;101148.80;1715843;83;21058;-81
2021/10/30 02:48:11;;;;;;;64.53;42.98;;;;;;;3.44;81.80;101157.22;1715614;83;21576;-81
2021/10/30 02:50:41;;;;;;;67.85;42.08;;;;;;;3.45;81.88;101161.22;1716146;83;21074;-81
2021/10/30 02:53:06;;;;;;;71.07;42.05;;;;;;;3.47;81.94;101158.69;1716623;83;21078;-80
2021/10/30 02:55:33;;;;;;;66.90;43.85;;;;;;;3.49;81.99;101155.39;1716038;83;22581;-81
2021/10/30 02:58:00;;;;;;;64.77;41.13;;;;;;;3.49;81.92;101156.69;1715884;83;21652;-81
2021/10/30 03:00:27;;;;;;;62.40;40.50;;;;;;;3.49;81.93;101163.20;1715882;83;21154;-82
2021/10/30 03:02:54;;;;;;;56.70;40.38;;;;;;;3.50;82.13;101158.47;1715839;83;21031;-81
2021/10/30 03:05:20;;;;;;;65.85;42.83;;;;;;;3.54;82.22;101157.36;1716028;83;21126;-81
2021/10/30 03:07:47;;;;;;;71.67;42.67;;;;;;;3.56;82.28;101157.94;1715942;83;21744;-81
2021/10/30 03:10:18;;;;;;;63.52;42.43;;;;;;;3.58;82.31;101160.22;1715827;83;21266;-81
2021/10/30 03:12:45;;;;;;;66.72;42.35;;;;;;;3.60;82.32;101165.53;1715195;83;21078;-81
2021/10/30 03:15:13;;;;;;;62.67;41.23;;;;;;;3.61;82.30;101166.03;1710675;83;21118;-82
2021/10/30 03:17:40;;;;;;;62.27;40.40;;;;;;;3.61;82.24;101160.83;1715919;83;21640;-81
2021/10/30 03:20:10;;;;;;;65.03;40.03;;;;;;;3.63;82.24;101167.02;1711251;83;21325;-81
2021/10/30 03:22:42;;;;;;;64.85;40.48;;;;;;;3.64;82.29;101166.20;1711448;83;21114;-82
2021/10/30 03:25:12;;;;;;;68.28;44.40;;;;;;;3.64;82.23;101167.12;1715289;83;21509;-81
2021/10/30 03:27:36;;;;;;;66.70;44.25;;;;;;;3.63;82.19;101164.42;1715095;83;21221;-81
2021/10/30 03:30:07;;;;;;;63.92;39.38;;;;;;;3.64;82.17;101172.70;1715192;83;21059;-74
2021/10/30 03:32:34;;;;;;;62.98;37.93;;;;;;;3.63;82.11;101173.53;1715081;83;21788;-74
2021/10/30 03:35:02;;;;;;;62.93;37.73;;;;;;;3.62;82.12;101168.73;1715532;83;21016;-73
2021/10/30 03:37:32;;;;;;;64.00;38.02;;;;;;;3.63;82.12;101174.83;1715626;83;21473;-73
2021/10/30 03:40:01;;;;;;;58.08;38.75;;;;;;;3.63;82.08;101172.23;1710098;83;21079;-73
2021/10/30 03:42:28;;;;;;;56.77;36.63;;;;;;;3.63;82.10;101173.53;1715373;83;21082;-73
2021/10/30 03:44:54;;;;;;;58.85;37.60;;;;;;;3.61;81.97;101173.44;1715690;83;21790;-73
2021/10/30 03:47:21;;;;;;;59.05;37.38;;;;;;;3.60;81.99;101170.32;1715328;83;21066;-74
2021/10/30 03:49:51;;;;;;;53.55;35.08;;;;;;;3.60;82.02;101170.73;1715332;83;21090;-74
2021/10/30 03:52:18;;;;;;;54.90;35.90;;;;;;;3.60;82.05;101174.22;1715451;83;21074;-73
2021/10/30 03:54:45;;;;;;;59.65;35.63;;;;;;;3.58;81.96;101177.14;1715583;83;21062;-74
2021/10/30 03:57:14;;;;;;;56.20;34.67;;;;;;;3.58;82.00;101180.16;1684460;83;21822;-74
2021/10/30 03:59:43;;;;;;;57.10;35.30;;;;;;;3.60;82.05;101182.45;1715447;83;21078;-74
2021/10/30 04:02:09;;;;;;;60.73;35.58;;;;;;;3.60;82.10;101183.34;1715468;83;21086;-74
2021/10/30 04:04:36;;;;;;;55.33;35.63;;;;;;;3.61;82.03;101180.36;1715532;83;21153;-74
2021/10/30 04:07:03;;;;;;;54.38;34.67;;;;;;;3.62;82.08;101186.03;1715456;83;21023;-74
2021/10/30 04:09:32;;;;;;;52.00;35.28;;;;;;;3.61;82.00;101191.66;1715604;83;22162;-75
2021/10/30 04:11:59;;;;;;;56.88;34.90;;;;;;;3.62;82.02;101188.64;1694975;83;21097;-75
2021/10/30 04:14:32;;;;;;;54.30;34.88;;;;;;;3.63;82.05;101190.45;1684524;83;21082;-75
2021/10/30 04:17:05;;;;;;;56.02;34.45;;;;;;;3.63;82.04;101188.73;1684551;83;21165;-75
2021/10/30 04:19:32;;;;;;;62.27;35.28;;;;;;;3.63;81.97;101188.73;1714308;83;21682;-74
2021/10/30 04:22:01;;;;;;;58.33;34.43;;;;;;;3.63;81.98;101183.95;1710661;83;21094;-74
2021/10/30 04:24:28;;;;;;;50.03;33.10;;;;;;;3.62;81.92;101184.73;1715243;83;21137;-75
2021/10/30 04:26:55;;;;;;;49.95;33.83;;;;;;;3.61;81.89;101182.95;1714033;83;21549;-80
2021/10/30 04:29:24;;;;;;;51.18;33.65;;;;;;;3.58;81.81;101184.95;1715209;83;21078;-80
2021/10/30 04:31:53;;;;;;;54.40;34.88;;;;;;;3.57;81.88;101187.08;1715513;83;22436;-79
2021/10/30 04:34:47;;;;;;;52.50;33.63;;;;;;;3.57;81.93;101180.98;1709989;83;21768;-80
2021/10/30 04:37:16;;;;;;;53.70;33.40;;;;;;;3.44;81.80;101159.41;1706306;83;21516;-75
2021/10/30 04:39:48;;;;;;;53.08;35.00;;;;;;;3.54;81.83;101180.78;1713099;82;21718;-79
2021/10/30 04:42:15;;;;;;;57.90;35.17;;;;;;;3.53;81.82;101177.67;1714542;83;21087;-79
2021/10/30 04:44:42;;;;;;;55.08;36.17;;;;;;;3.51;81.81;101172.41;1715232;83;21080;-79
2021/10/30 04:47:09;;;;;;;56.45;35.60;;;;;;;3.50;81.74;101169.29;1715273;83;21939;-79
2021/10/30 04:49:43;;;;;;;53.40;33.53;;;;;;;3.48;81.73;101169.61;1661416;83;21028;-80
2021/10/30 04:52:09;;;;;;;55.43;35.63;;;;;;;3.45;81.64;101169.41;1714141;83;21100;-80
2021/10/30 04:54:38;;;;;;;57.98;36.00;;;;;;;3.41;81.63;101169.63;1712541;83;21124;-80
2021/10/30 04:57:09;;;;;;;59.15;36.95;;;;;;;3.39;81.55;101169.05;1715454;82;21135;-81
2021/10/30 04:59:36;;;;;;;63.10;37.63;;;;;;;3.36;81.52;101158.44;1744711;80;21811;-80
2021/10/30 05:02:04;;;;;;;61.40;38.40;;;;;;;3.32;81.55;101159.95;1745129;81;20995;-80
2021/10/30 05:04:30;;;;;;;64.20;38.30;;;;;;;3.30;81.57;101165.47;1745219;82;21081;-80
2021/10/30 05:06:57;;;;;;;56.50;36.65;;;;;;;3.28;81.62;101152.78;1744904;82;21154;-80
2021/10/30 05:09:30;;;;;;;60.92;38.25;;;;;;;3.26;81.63;101156.98;1710182;82;21125;-81
2021/10/30 05:11:57;;;;;;;58.42;35.90;;;;;;;3.24;81.60;101158.61;1745469;82;22494;-80
2021/10/30 05:14:29;;;;;;;55.65;36.93;;;;;;;3.21;81.61;101157.10;1711391;83;22238;-82
2021/10/30 05:16:57;;;;;;;58.92;36.13;;;;;;;3.20;81.70;101165.73;1744808;82;21254;-81
2021/10/30 05:19:24;;;;;;;57.45;37.40;;;;;;;3.21;81.83;101159.70;1745188;82;21206;-80
2021/10/30 05:21:51;;;;;;;57.60;35.78;;;;;;;3.21;81.82;101168.44;1745687;80;21548;-80
2021/10/30 05:24:18;;;;;;;60.83;37.15;;;;;;;3.19;81.79;101175.63;1744943;82;21759;-78
2021/10/30 05:26:46;;;;;;;57.55;36.90;;;;;;;3.20;81.94;101169.63;1745086;82;21513;-80
2021/10/30 05:29:22;;;;;;;53.60;34.75;;;;;;;3.23;81.96;101168.50;1708960;82;34267;-83
2021/10/30 05:31:51;;;;;;;55.28;33.88;;;;;;;3.20;81.90;101162.72;1745013;82;21067;-79
2021/10/30 05:34:18;;;;;;;62.23;36.35;;;;;;;3.20;81.85;101173.13;1744942;82;21145;-78
2021/10/30 05:36:46;;;;;;;61.13;36.05;;;;;;;3.23;81.96;101169.42;1745140;82;21820;-79
2021/10/30 05:39:15;;;;;;;60.92;35.30;;;;;;;3.23;81.97;101172.02;1744858;82;21091;-79
2021/10/30 05:41:43;;;;;;;59.53;35.98;;;;;;;3.26;82.08;101176.50;1745028;81;21078;-78
2021/10/30 05:44:13;;;;;;;53.50;34.20;;;;;;;3.27;82.02;101178.31;1744926;82;21106;-79
2021/10/30 05:46:40;;;;;;;56.95;36.10;;;;;;;3.29;82.00;101188.41;1745180;82;21066;-78
2021/10/30 05:49:07;;;;;;;62.55;38.45;;;;;;;3.28;81.96;101190.50;1745160;81;22555;-79
2021/10/30 05:51:34;;;;;;;58.10;36.55;;;;;;;3.29;81.97;101189.30;1745007;82;21636;-78
2021/10/30 05:54:01;;;;;;;57.15;36.90;;;;;;;3.30;81.99;101191.11;1745029;82;21024;-78
2021/10/30 05:56:28;;;;;;;56.23;36.73;;;;;;;3.31;81.99;101195.91;1745114;82;21086;-78
2021/10/30 05:58:55;;;;;;;60.83;36.08;;;;;;;3.31;81.98;101186.39;1745248;82;21082;-79
2021/10/30 06:01:24;;;;;;;60.55;37.95;;;;;;;3.33;81.96;101185.19;1745210;82;22655;-79
2021/10/30 06:03:53;;;;;;;55.58;35.83;;;;;;;3.35;82.00;101187.89;1743760;82;21070;-79
2021/10/30 06:06:19;;;;;;;61.08;37.03;;;;;;;3.39;81.95;101193.77;1745837;82;21552;-79
2021/10/30 06:08:59;;;;;;;60.28;38.30;;;;;;;3.39;81.94;101201.16;1745835;82;21079;-79
2021/10/30 06:11:25;;;;;;;60.03;39.80;;;;;;;3.43;81.99;101197.05;1745468;82;21031;-82
2021/10/30 06:13:52;;;;;;;68.22;39.90;;;;;;;3.47;81.96;101192.52;1745756;81;21819;-83
2021/10/30 06:16:19;;;;;;;64.25;39.80;;;;;;;3.50;81.97;101195.31;1745231;82;21070;-78
2021/10/30 06:18:45;;;;;;;58.52;35.83;;;;;;;3.55;82.00;101194.28;1745456;82;21082;-80
2021/10/30 06:21:14;;;;;;;49.75;32.20;;;;;;;3.59;82.00;101200.19;1714470;82;21521;-81
2021/10/30 06:23:43;;;;;;;46.77;31.70;;;;;;;3.63;81.94;101196.55;1745962;82;21058;-81
2021/10/30 06:26:11;;;;;;;52.08;33.45;;;;;;;3.68;82.00;101200.33;1713534;82;21094;-79
2021/10/30 06:28:41;;;;;;;53.58;33.15;;;;;;;3.74;81.96;101205.42;1745229;82;21062;-79
2021/10/30 06:31:06;;;;;;;49.08;32.17;;;;;;;3.80;81.96;101208.38;1744580;82;21624;-80
2021/10/30 06:33:33;;;;;;;51.18;31.62;;;;;;;3.87;81.98;101213.16;1745160;82;21310;-80
2021/10/30 06:36:00;;;;;;;50.00;30.72;;;;;;;3.93;81.97;101216.52;1745500;82;21027;-80
2021/10/30 06:38:26;;;;;;;54.90;32.83;;;;;;;3.97;81.92;101214.17;1745026;82;21757;-80
2021/10/30 06:40:56;;;;;;;46.02;31.55;;;;;;;4.04;81.91;101218.05;1747725;81;21093;-80
2021/10/30 06:43:24;;;;;;;50.12;30.27;;;;;;;4.09;81.85;101212.69;1752911;81;21081;-81
2021/10/30 06:45:50;;;;;;;55.95;31.12;;;;;;;4.19;82.09;101215.03;1753239;81;21504;-80
2021/10/30 06:48:17;;;;;;;44.53;29.63;;;;;;;4.29;81.97;101214.74;1753119;81;21046;-80
2021/10/30 06:50:52;;;;;;;49.98;30.62;;;;;;;4.37;82.07;101206.05;1753491;81;21807;-80
2021/10/30 06:53:25;;;;;;;50.55;31.48;;;;;;;4.48;81.94;101211.89;1747586;81;21098;-79
2021/10/30 06:56:02;;;;;;;52.60;33.53;;;;;;;4.55;81.78;101215.34;1723922;81;21088;-80
2021/10/30 06:58:29;;;;;;;49.80;32.28;;;;;;;4.63;81.71;101214.47;1674950;83;21547;-80
2021/10/30 07:00:58;;;;;;;57.53;35.58;;;;;;;4.76;82.22;101217.36;1722977;83;22502;-79
2021/10/30 07:03:42;;;;;;;51.18;33.40;;;;;;;4.92;82.08;101209.97;1694410;83;21117;-82
2021/10/30 07:06:13;;;;;;;58.75;35.78;;;;;;;4.99;81.79;101202.98;1723144;83;21087;-80
2021/10/30 07:08:55;;;;;;;;;;;;;;;;;;;;;
2021/10/30 07:11:18;;;;;;;60.15;33.65;;;;;;;5.13;81.38;101210.27;1692518;83;21117;-81
2021/10/30 07:13:45;;;;;;;54.55;33.08;;;;;;;5.24;81.45;101211.75;1722503;83;21069;-81
2021/10/30 07:16:15;;;;;;;56.40;34.35;;;;;;;5.31;81.21;101210.34;1722603;83;22656;-81
2021/10/30 07:18:40;;;;;;;47.35;31.65;;;;;;;5.38;81.17;101211.17;1722500;83;21069;-81
2021/10/30 07:21:07;;;;;;;51.37;31.68;;;;;;;5.45;81.05;101210.69;1722965;83;21077;-80
2021/10/30 07:23:37;;;;;;;48.50;32.60;;;;;;;5.52;81.00;101218.41;1693321;83;21113;-81
2021/10/30 07:26:08;;;;;;;47.55;32.30;;;;;;;5.57;80.92;101215.23;1723348;83;21081;-81
2021/10/30 07:28:34;;;;;;;48.13;33.35;;;;;;;5.62;80.81;101211.16;1722958;83;21804;-80
2021/10/30 07:31:03;;;;;;;47.75;30.70;;;;;;;5.69;80.79;101213.69;1723286;83;21038;-80
2021/10/30 07:33:32;;;;;;;42.13;29.05;;;;;;;5.74;80.72;101207.39;1723380;83;21136;-80
2021/10/30 07:35:59;;;;;;;51.48;29.02;;;;;;;5.80;80.62;101207.31;1723041;83;21081;-80
2021/10/30 07:38:26;;;;;;;45.00;28.70;;;;;;;5.88;80.63;101207.70;1722768;83;21510;-81
2021/10/30 07:40:53;;;;;;;43.45;28.55;;;;;;;5.94;80.49;101201.47;1723063;83;21743;-81
2021/10/30 07:43:22;;;;;;;42.98;29.80;;;;;;;6.02;80.46;101203.20;1723285;83;21066;-81
2021/10/30 07:45:52;;;;;;;44.83;30.08;;;;;;;6.08;80.35;101206.53;1723474;83;21069;-80
2021/10/30 07:48:19;;;;;;;46.08;29.70;;;;;;;6.17;80.37;101213.53;1695766;83;21672;-80
2021/10/30 07:50:46;;;;;;;50.12;28.67;;;;;;;6.26;80.28;101211.38;1723647;83;21587;-81
2021/10/30 07:53:13;;;;;;;52.40;29.15;;;;;;;6.35;80.19;101213.14;1723615;83;22530;-81
2021/10/30 07:55:43;;;;;;;44.55;27.73;;;;;;;6.42;80.18;101212.63;1723460;83;21011;-81
2021/10/30 07:58:08;;;;;;;47.33;28.47;;;;;;;6.53;80.15;101208.31;1722852;82;21094;-81
2021/10/30 08:00:34;;;;;;;41.68;28.10;;;;;;;6.64;80.07;101207.53;1723702;83;21081;-81
2021/10/30 08:03:05;;;;;;;44.55;28.12;;;;;;;6.72;79.99;101207.48;1723921;83;21058;-79
2021/10/30 08:05:30;;;;;;;41.88;27.77;;;;;;;6.80;79.89;101211.38;1722981;83;21966;-81
2021/10/30 08:07:56;;;;;;;43.35;27.25;;;;;;;6.88;79.79;101210.02;1723534;83;21077;-81
2021/10/30 08:10:26;;;;;;;37.93;27.42;;;;;;;6.96;79.67;101209.98;1723571;82;21085;-81
2021/10/30 08:12:52;;;;;;;42.58;28.35;;;;;;;7.03;79.61;101207.64;1723370;82;21441;-80
2021/10/30 08:15:19;;;;;;;39.53;26.65;;;;;;;7.09;79.55;101215.77;1723692;83;21057;-81
2021/10/30 08:17:45;;;;;;;38.73;26.25;;;;;;;7.17;79.41;101210.08;1723599;81;23054;-81
2021/10/30 08:20:12;;;;;;;35.50;25.35;;;;;;;7.27;79.31;101214.43;1723377;82;21034;-81
2021/10/30 08:22:42;;;;;;;40.90;26.23;;;;;;;7.34;79.17;101216.08;1723774;83;21084;-80
2021/10/30 08:25:10;;;;;;;36.10;25.60;;;;;;;7.43;79.14;101208.15;1696364;83;21105;-81
2021/10/30 08:27:37;;;;;;;36.80;27.30;;;;;;;7.53;79.06;101207.75;1723719;82;21080;-81
2021/10/30 08:30:06;;;;;;;37.63;26.87;;;;;;;7.62;78.92;101208.16;1723554;83;21782;-80
2021/10/30 08:32:34;;;;;;;40.33;25.40;;;;;;;7.71;78.82;101205.91;1696685;83;22245;-81
2021/10/30 08:35:01;;;;;;;42.70;25.82;;;;;;;7.81;78.74;101215.49;1723760;81;22268;-81
2021/10/30 08:37:28;;;;;;;37.30;25.80;;;;;;;7.89;78.67;101216.31;1723559;82;21093;-81
2021/10/30 08:39:55;;;;;;;37.60;27.35;;;;;;;7.98;78.57;101218.03;1723405;83;21045;-81
2021/10/30 08:42:22;;;;;;;41.13;27.70;;;;;;;8.06;78.49;101213.53;1717424;82;22623;-81
2021/10/30 08:44:53;;;;;;;40.05;26.93;;;;;;;8.13;78.25;101208.61;1684265;83;21544;-81
2021/10/30 08:47:20;;;;;;;41.30;27.62;;;;;;;8.20;78.12;101208.44;1715339;82;20995;-81
2021/10/30 08:49:46;;;;;;;37.67;26.45;;;;;;;8.27;78.10;101204.36;1715284;83;21077;-81
2021/10/30 08:52:13;;;;;;;36.95;26.12;;;;;;;8.35;77.96;101195.98;1715237;83;21084;-81
2021/10/30 08:54:42;;;;;;;36.55;26.45;;;;;;;8.44;77.85;101195.91;1715245;82;22565;-81
2021/10/30 08:57:08;;;;;;;36.75;26.40;;;;;;;8.51;77.68;101192.27;1714998;83;21050;-81
2021/10/30 08:59:41;;;;;;;40.15;27.58;;;;;;;8.59;77.60;101187.76;1715361;83;21066;-81
2021/10/30 09:02:09;;;;;;;39.05;27.70;;;;;;;8.69;77.48;101189.90;1715485;83;21074;-81
2021/10/30 09:04:35;;;;;;;37.98;26.27;;;;;;;8.78;77.38;101184.12;1715246;83;21101;-81
2021/10/30 09:07:08;;;;;;;38.65;28.02;;;;;;;8.85;77.17;101182.23;1715541;83;21840;-81
2021/10/30 09:09:37;;;;;;;46.02;29.07;;;;;;;8.92;77.11;101184.26;1715795;83;21033;-80
2021/10/30 09:12:04;;;;;;;38.33;26.65;;;;;;;9.01;77.00;101180.67;1715424;83;21121;-81
2021/10/30 09:14:33;;;;;;;45.28;28.32;;;;;;;9.10;76.97;101179.72;1715433;83;21136;-81
2021/10/30 09:17:17;;;;;;;43.78;28.15;;;;;;;9.17;76.79;101176.00;1715258;83;21386;-81
2021/10/30 09:19:52;;;;;;;49.60;29.10;;;;;;;9.22;76.62;101176.64;1715261;83;21762;-80
2021/10/30 09:22:21;;;;;;;40.20;28.62;;;;;;;9.29;76.31;101174.73;1714969;83;21062;-81
2021/10/30 09:25:00;;;;;;;36.13;26.93;;;;;;;9.36;76.16;101172.31;1715361;83;21075;-81
2021/10/30 09:27:49;;;;;;;39.78;28.60;;;;;;;9.43;76.06;101170.39;1684507;83;21053;-81
2021/10/30 09:30:21;;;;;;;36.13;25.75;;;;;;;9.49;75.87;101172.80;1714653;83;21321;-81
2021/10/30 09:33:04;;;;;;;34.95;24.32;;;;;;;9.58;75.80;101176.63;1715213;83;21766;-81
2021/10/30 09:35:40;;;;;;;33.58;23.40;;;;;;;9.67;75.63;101175.64;1715053;83;21046;-81
2021/10/30 09:38:16;;;;;;;35.90;27.00;;;;;;;9.73;75.46;101176.73;1715558;83;21053;-81
2021/10/30 09:40:47;;;;;;;34.58;24.98;;;;;;;9.81;75.45;101175.69;1705755;83;21671;-81
2021/10/30 09:43:16;;;;;;;34.80;25.72;;;;;;;9.87;75.28;101165.41;1714441;83;21077;-81
2021/10/30 09:45:51;;;;;;;32.93;24.63;;;;;;;9.92;75.07;101166.42;1715446;83;21922;-81
2021/10/30 09:48:24;;;;;;;37.95;26.55;;;;;;;9.99;74.89;101170.17;1715133;83;21073;-81
2021/10/30 09:51:00;;;;;;;35.80;25.40;;;;;;;10.05;74.79;101175.64;1715125;83;21050;-81
2021/10/30 09:53:39;;;;;;;33.38;25.50;;;;;;;10.12;74.66;101178.95;1715093;83;21652;-81
2021/10/30 09:56:12;;;;;;;34.40;25.43;;;;;;;10.20;74.54;101177.89;1715154;83;21045;-81
2021/10/30 09:58:43;;;;;;;34.48;23.07;;;;;;;10.31;74.49;101174.34;1683838;83;22636;-82
2021/10/30 10:01:12;;;;;;;31.68;24.77;;;;;;;10.39;74.24;101171.95;1715276;83;21073;-81
2021/10/30 10:03:44;;;;;;;32.25;24.10;;;;;;;10.45;74.04;101170.40;1715455;83;21062;-81
2021/10/30 10:06:14;;;;;;;35.78;23.73;;;;;;;10.51;73.92;101165.78;1715441;83;21109;-81
2021/10/30 10:08:48;;;;;;;38.50;24.95;;;;;;;10.56;73.73;101164.60;1715475;83;21050;-81
2021/10/30 10:11:16;;;;;;;36.93;25.00;;;;;;;10.62;73.66;101161.75;1715187;83;22639;-81
2021/10/30 10:13:53;;;;;;;32.25;23.07;;;;;;;10.68;73.48;101162.37;1715344;83;21682;-81
2021/10/30 10:16:21;;;;;;;35.83;25.00;;;;;;;10.73;73.30;101164.69;1715082;83;21614;-81
2021/10/30 10:18:55;;;;;;;32.25;23.62;;;;;;;10.79;73.18;101162.27;1715489;83;21069;-81
2021/10/30 10:21:28;;;;;;;31.25;23.55;;;;;;;10.84;73.03;101159.34;1715251;83;21093;-80
2021/10/30 10:24:03;;;;;;;31.65;23.50;;;;;;;10.91;72.99;101160.86;1714382;83;21867;-82
2021/10/30 10:26:51;;;;;;;36.73;27.58;;;;;;;10.96;72.91;101157.92;1713579;83;21101;-81
2021/10/30 10:29:35;;;;;;;33.98;23.90;;;;;;;10.99;72.73;101153.64;1715506;83;21621;-81
2021/10/30 10:32:05;;;;;;;33.18;25.90;;;;;;;11.06;72.64;101161.31;1659413;83;21109;-81
2021/10/30 10:34:43;;;;;;;35.13;22.85;;;;;;;11.11;72.47;101157.05;1715274;83;21010;-81
2021/10/30 10:37:17;;;;;;;34.43;23.38;;;;;;;11.17;72.48;101159.00;1715445;83;21916;-81
2021/10/30 10:39:57;;;;;;;33.50;23.45;;;;;;;11.23;72.35;101153.47;1715375;83;21089;-81
2021/10/30 10:42:41;;;;;;;31.68;23.65;;;;;;;11.33;72.25;101156.36;1715328;83;21102;-81
2021/10/30 10:45:15;;;;;;;30.95;23.07;;;;;;;11.39;71.99;101153.49;1684400;83;21588;-81
2021/10/30 10:47:50;;;;;;;35.52;23.02;;;;;;;11.43;71.72;101142.17;1715671;83;20999;-81
2021/10/30 10:50:30;;;;;;;31.73;21.80;;;;;;;11.48;71.52;101140.53;1715397;83;22011;-81
2021/10/30 10:53:09;;;;;;;32.75;21.75;;;;;;;11.52;71.40;101134.92;1684472;82;21609;-82
2021/10/30 10:55:40;;;;;;;38.73;29.45;;;;;;;11.57;71.29;101133.31;1715309;83;21261;-81
2021/10/30 10:58:08;;;;;;;29.42;20.52;;;;;;;11.62;71.05;101129.50;1710663;83;21129;-81
2021/10/30 11:00:35;;;;;;;33.23;22.98;;;;;;;11.66;70.84;101120.38;1715297;83;21058;-82
2021/10/30 11:03:02;;;;;;;29.57;22.10;;;;;;;11.72;70.69;101119.65;1715340;83;21782;-81
2021/10/30 11:05:33;;;;;;;25.85;20.00;;;;;;;11.76;70.51;101123.27;1715183;83;21062;-81
2021/10/30 11:08:10;;;;;;;27.48;20.88;;;;;;;11.80;70.44;101125.13;1715618;83;21606;-81
2021/10/30 11:10:39;;;;;;;29.27;20.48;;;;;;;11.83;70.25;101119.94;1712791;83;21612;-81
2021/10/30 11:13:08;;;;;;;31.60;21.17;;;;;;;11.87;70.18;101117.84;1715443;83;21128;-81
2021/10/30 11:15:46;;;;;;;34.08;21.37;;;;;;;11.89;70.14;101109.53;1715352;83;21773;-82
2021/10/30 11:18:46;;;;;;;26.62;19.17;;;;;;;11.94;70.05;101109.70;1715323;83;21054;-81
2021/10/30 11:21:21;;;;;;;32.30;21.65;;;;;;;11.96;69.88;101114.59;1684476;83;21518;-81
2021/10/30 11:23:51;;;;;;;;;;;;;;;12.00;69.86;101109.41;1717169;82;21631;-81
2021/10/30 11:26:27;;;;;;;27.90;21.42;;;;;;;12.01;69.66;101104.61;1715292;83;20213;-81
2021/10/30 11:29:15;;;;;;;28.47;20.50;;;;;;;12.03;69.78;101109.50;1715510;83;21731;-82